Time;durP1;ratioP1;P1;durP2;ratioP2;P2;SDS_P1;SDS_P2;PMS_P1;PMS_P2;Temp;Humidity;BMP_temperature;BMP_pressure;BME280_temperature;BME280_humidity;BME280_pressure;Samples;Min_cycle;Max_cycle;Signal;HPM_P1;HPM_P2
2021/07/02 00:02:01;;;;;;;1999.90;999.90;;;13.30;99.90;;;;;;5050507;28;20177;-47
2021/07/02 00:04:28;;;;;;;1999.90;999.90;;;13.30;99.90;;;;;;5050816;28;20187;-48
2021/07/02 00:06:55;;;;;;;1999.90;999.90;;;13.30;99.90;;;;;;5050673;28;20169;-48
2021/07/02 00:09:22;;;;;;;1999.90;999.90;;;13.30;99.90;;;;;;5049582;28;20260;-48
2021/07/02 00:11:49;;;;;;;1999.90;999.90;;;13.30;99.90;;;;;;5050451;28;20225;-50
2021/07/02 00:14:15;;;;;;;1999.90;999.90;;;13.30;99.90;;;;;;5053652;28;20432;-47
2021/07/02 00:16:42;;;;;;;1999.90;999.90;;;13.30;99.90;;;;;;5054189;28;20165;-48
2021/07/02 00:19:09;;;;;;;1999.90;999.90;;;13.30;99.90;;;;;;5054152;28;20211;-48
2021/07/02 00:21:36;;;;;;;1999.90;999.90;;;13.40;99.90;;;;;;5053949;28;20169;-47
2021/07/02 00:24:03;;;;;;;1999.90;999.90;;;13.40;99.90;;;;;;5054300;28;20165;-47
2021/07/02 00:26:30;;;;;;;1999.90;999.90;;;13.40;99.90;;;;;;5053862;28;20271;-50
2021/07/02 00:28:56;;;;;;;1999.90;999.90;;;13.40;99.90;;;;;;5053843;28;20161;-49
2021/07/02 00:31:23;;;;;;;1999.90;999.90;;;13.30;99.90;;;;;;5054109;28;20582;-50
2021/07/02 00:33:50;;;;;;;1999.90;999.90;;;13.40;99.90;;;;;;5053516;28;20176;-47
2021/07/02 00:36:17;;;;;;;1999.90;999.90;;;13.40;99.90;;;;;;5053700;28;20291;-49
2021/07/02 00:38:43;;;;;;;1999.90;999.90;;;13.30;99.90;;;;;;5053832;28;20545;-47
2021/07/02 00:41:10;;;;;;;1999.90;999.90;;;13.30;99.90;;;;;;5053624;28;20169;-48
2021/07/02 00:43:46;;;;;;;1999.90;999.90;;;13.30;99.90;;;;;;5053818;28;20252;-47
2021/07/02 00:46:13;;;;;;;1999.90;999.90;;;13.30;99.90;;;;;;5053690;28;20157;-49
2021/07/02 00:48:39;;;;;;;1999.90;999.90;;;13.30;99.90;;;;;;5053397;28;20624;-47
2021/07/02 00:51:06;;;;;;;1999.90;999.90;;;13.30;99.90;;;;;;5053587;28;20165;-47
2021/07/02 00:53:33;;;;;;;1999.90;999.90;;;13.30;99.90;;;;;;5053553;28;20255;-49
2021/07/02 00:56:01;;;;;;;1999.90;999.90;;;13.30;99.90;;;;;;5053295;28;20161;-48
2021/07/02 00:58:33;;;;;;;1999.90;999.90;;;13.30;99.90;;;;;;5053725;28;20197;-47
2021/07/02 01:01:00;;;;;;;1999.90;999.90;;;13.30;99.90;;;;;;5053438;28;20161;-49
2021/07/02 01:03:27;;;;;;;1999.90;999.90;;;13.30;99.90;;;;;;5053258;28;20260;-47
2021/07/02 01:05:55;;;;;;;1999.90;999.90;;;13.40;99.90;;;;;;5053630;28;20164;-47
2021/07/02 01:08:23;;;;;;;1999.90;999.90;;;13.40;99.90;;;;;;5052921;28;20200;-47
2021/07/02 01:10:50;;;;;;;1999.90;999.90;;;13.30;99.90;;;;;;5052903;28;20278;-48
2021/07/02 01:13:18;;;;;;;1999.90;999.90;;;13.30;99.90;;;;;;5053233;28;20165;-49
2021/07/02 01:15:51;;;;;;;1999.90;999.90;;;13.30;99.90;;;;;;5053082;28;20196;-47
2021/07/02 01:18:18;;;;;;;1999.90;999.90;;;13.30;99.90;;;;;;5052922;28;20279;-48
2021/07/02 01:20:49;;;;;;;1999.90;999.90;;;13.40;99.90;;;;;;5053045;28;20170;-47
2021/07/02 01:23:16;;;;;;;1999.90;999.90;;;13.40;99.90;;;;;;5052199;28;20184;-48
2021/07/02 01:25:44;;;;;;;1999.90;999.90;;;13.40;99.90;;;;;;5053244;28;20165;-50
2021/07/02 01:28:12;;;;;;;1999.90;999.90;;;13.40;99.90;;;;;;5052730;28;20558;-48
2021/07/02 01:30:40;;;;;;;1999.90;999.90;;;13.40;99.90;;;;;;5052561;28;20193;-47
2021/07/02 01:33:09;;;;;;;1999.90;999.90;;;13.40;99.90;;;;;;5053050;28;20223;-48
2021/07/02 01:35:36;;;;;;;1999.90;999.90;;;13.40;99.90;;;;;;5052524;28;20168;-47
2021/07/02 01:38:04;;;;;;;1999.90;999.90;;;13.40;99.90;;;;;;5052574;28;20200;-47
2021/07/02 01:40:32;;;;;;;1999.90;999.90;;;13.40;99.90;;;;;;5052814;28;20691;-47
2021/07/02 01:43:02;;;;;;;1999.90;999.90;;;13.40;99.90;;;;;;5052522;28;20161;-48
2021/07/02 01:45:29;;;;;;;1999.90;999.90;;;13.40;99.90;;;;;;5052701;28;20512;-49
2021/07/02 01:47:56;;;;;;;1999.90;999.90;;;13.40;99.90;;;;;;5052519;28;20165;-49
2021/07/02 01:50:25;;;;;;;1999.90;999.90;;;13.40;99.90;;;;;;5052540;28;20165;-48
2021/07/02 01:52:55;;;;;;;1999.90;999.90;;;13.40;99.90;;;;;;5052523;28;20765;-49
2021/07/02 01:55:23;;;;;;;1999.90;999.90;;;13.40;99.90;;;;;;5052447;28;20636;-48
2021/07/02 01:57:49;;;;;;;1999.90;999.90;;;13.50;99.90;;;;;;5051841;28;20196;-48
2021/07/02 02:00:18;;;;;;;1999.90;999.90;;;13.40;99.90;;;;;;5052525;28;20188;-48
2021/07/02 02:02:45;;;;;;;1999.90;999.90;;;13.40;99.90;;;;;;5051797;28;20188;-48
2021/07/02 02:05:13;;;;;;;1999.90;999.90;;;13.40;99.90;;;;;;5052054;28;20197;-50
2021/07/02 02:07:39;;;;;;;1999.90;999.90;;;13.40;99.90;;;;;;5052429;28;20581;-48
2021/07/02 02:10:07;;;;;;;1999.90;999.90;;;13.40;99.90;;;;;;5051688;28;20613;-49
2021/07/02 02:12:34;;;;;;;1999.90;999.90;;;13.40;99.90;;;;;;5051913;28;20553;-48
2021/07/02 02:15:01;;;;;;;1999.90;999.90;;;13.30;99.90;;;;;;5052106;28;20173;-48
2021/07/02 02:17:27;;;;;;;1999.90;999.90;;;13.40;99.90;;;;;;5051550;28;20567;-48
2021/07/02 02:19:54;;;;;;;1999.90;999.90;;;13.40;99.90;;;;;;5051945;28;20643;-48
2021/07/02 02:22:21;;;;;;;1999.90;999.90;;;13.40;99.90;;;;;;5051688;28;20250;-49
2021/07/02 02:24:48;;;;;;;1999.90;999.90;;;13.40;99.90;;;;;;5051563;28;20177;-47
2021/07/02 02:27:14;;;;;;;1999.90;999.90;;;13.40;99.90;;;;;;5051790;28;20197;-49
2021/07/02 02:29:41;;;;;;;1999.90;999.90;;;13.40;99.90;;;;;;5051752;28;20165;-48
2021/07/02 02:32:08;;;;;;;1999.90;999.90;;;13.40;99.90;;;;;;5051393;28;20169;-48
2021/07/02 02:34:36;;;;;;;1999.90;999.90;;;13.40;99.90;;;;;;5051601;28;20185;-48
2021/07/02 02:37:03;;;;;;;1999.90;999.90;;;13.40;99.90;;;;;;5050810;28;20169;-48
2021/07/02 02:39:30;;;;;;;1999.90;999.90;;;13.40;99.90;;;;;;5051317;28;20200;-48
2021/07/02 02:41:57;;;;;;;1999.90;999.90;;;13.40;99.90;;;;;;5051976;28;20208;-48
2021/07/02 02:44:24;;;;;;;1999.90;999.90;;;13.40;99.90;;;;;;5051258;28;20259;-48
2021/07/02 02:46:50;;;;;;;1999.90;999.90;;;13.40;99.90;;;;;;5051290;28;20180;-48
2021/07/02 02:49:17;;;;;;;1999.90;999.90;;;13.40;99.90;;;;;;5051603;28;20169;-49
2021/07/02 02:51:44;;;;;;;1999.90;999.90;;;13.40;99.90;;;;;;5051181;28;20177;-49
2021/07/02 02:54:11;;;;;;;1999.90;999.90;;;13.50;99.90;;;;;;5051469;28;20172;-49
2021/07/02 02:57:03;;;;;;;1999.90;999.90;;;13.50;99.90;;;;;;5051244;28;20180;-48
2021/07/02 02:59:25;;;;;;;1999.90;999.90;;;13.50;99.90;;;;;;5051076;28;20188;-49
2021/07/02 03:01:52;;;;;;;1999.90;999.90;;;13.50;99.90;;;;;;5051560;28;20235;-48
2021/07/02 03:04:19;;;;;;;1999.90;999.90;;;13.50;99.90;;;;;;5051369;28;20236;-48
2021/07/02 03:06:45;;;;;;;1999.90;999.90;;;13.50;99.90;;;;;;5050911;28;20180;-49
2021/07/02 03:09:12;;;;;;;1999.90;999.90;;;13.50;99.90;;;;;;5051616;28;20260;-48
2021/07/02 03:11:39;;;;;;;1999.90;999.90;;;13.50;99.90;;;;;;5050839;28;20216;-48
2021/07/02 03:14:06;;;;;;;1999.90;999.90;;;13.50;99.90;;;;;;5051092;28;20204;-48
2021/07/02 03:16:33;;;;;;;1999.90;999.90;;;13.50;99.90;;;;;;5051305;28;20176;-48
2021/07/02 03:18:59;;;;;;;1999.90;999.90;;;13.50;99.90;;;;;;5050979;28;20247;-50
2021/07/02 03:21:26;;;;;;;1999.90;999.90;;;13.50;99.90;;;;;;5051431;28;20170;-47
2021/07/02 03:23:53;;;;;;;1999.90;999.90;;;13.50;99.90;;;;;;5051112;28;20188;-48
2021/07/02 03:26:19;;;;;;;1999.90;999.90;;;13.50;99.90;;;;;;5051327;28;20241;-48
2021/07/02 03:28:46;;;;;;;1999.90;999.90;;;13.40;99.90;;;;;;5051289;28;20177;-51
2021/07/02 03:31:13;;;;;;;1999.90;999.90;;;13.40;99.90;;;;;;5051144;28;20169;-48
2021/07/02 03:33:40;;;;;;;1999.90;999.90;;;13.40;99.90;;;;;;5050978;28;20161;-48
2021/07/02 03:36:07;;;;;;;1999.90;999.90;;;13.40;99.90;;;;;;5051261;28;20169;-49
2021/07/02 03:38:33;;;;;;;1999.90;999.90;;;13.50;99.90;;;;;;5050758;28;20204;-49
2021/07/02 03:41:00;;;;;;;1999.90;999.90;;;13.40;99.90;;;;;;5050731;28;20169;-51
2021/07/02 03:43:27;;;;;;;1999.90;999.90;;;13.50;99.90;;;;;;5049983;28;20173;-49
2021/07/02 03:45:53;;;;;;;1999.90;999.90;;;13.50;99.90;;;;;;5050779;28;20256;-48
2021/07/02 03:48:20;;;;;;;1999.90;999.90;;;13.50;99.90;;;;;;5054209;28;20157;-49
2021/07/02 03:50:47;;;;;;;1999.90;999.90;;;13.40;99.90;;;;;;5054955;28;20172;-48
2021/07/02 03:53:14;;;;;;;1999.90;999.90;;;13.50;99.90;;;;;;5054403;28;20177;-49
2021/07/02 03:55:40;;;;;;;1999.90;999.90;;;13.50;99.90;;;;;;5054607;28;20173;-48
2021/07/02 03:58:07;;;;;;;1999.90;999.90;;;13.50;99.90;;;;;;5054518;28;20681;-48
2021/07/02 04:00:34;;;;;;;1999.90;999.90;;;13.50;99.90;;;;;;5054399;28;20223;-49
2021/07/02 04:03:01;;;;;;;1999.90;999.90;;;13.40;99.90;;;;;;5054464;28;20169;-48
2021/07/02 04:05:27;;;;;;;1999.90;999.90;;;13.40;99.90;;;;;;5054931;28;20231;-47
2021/07/02 04:07:54;;;;;;;1999.90;999.90;;;13.40;99.90;;;;;;5054173;28;20226;-49
2021/07/02 04:10:21;;;;;;;1999.90;999.90;;;13.40;99.90;;;;;;5054335;28;20219;-48
2021/07/02 04:12:48;;;;;;;1999.90;999.90;;;13.40;99.90;;;;;;5054297;28;20293;-49
2021/07/02 04:15:15;;;;;;;1999.90;999.90;;;13.40;99.90;;;;;;5054030;28;20173;-48
2021/07/02 04:17:42;;;;;;;1999.90;999.90;;;13.40;99.90;;;;;;5036515;28;20559;-48
2021/07/02 04:20:11;;;;;;;1999.90;999.90;;;13.40;99.90;;;;;;5053908;28;20201;-48
2021/07/02 04:22:39;;;;;;;1999.90;999.90;;;13.50;99.90;;;;;;5053795;28;20173;-48
2021/07/02 04:25:08;;;;;;;1999.90;999.90;;;13.40;99.90;;;;;;5054322;28;20620;-48
2021/07/02 04:27:35;;;;;;;1999.90;999.90;;;13.40;99.90;;;;;;5053757;28;20173;-49
2021/07/02 04:30:03;;;;;;;1999.90;999.90;;;13.40;99.90;;;;;;5054073;28;20176;-48
2021/07/02 04:32:30;;;;;;;1999.90;999.90;;;13.40;99.90;;;;;;5053771;28;20667;-48
2021/07/02 04:34:57;;;;;;;1999.90;999.90;;;13.30;99.90;;;;;;5053972;28;20161;-47
2021/07/02 04:37:23;;;;;;;1999.90;999.90;;;13.40;99.90;;;;;;5053705;28;20245;-48
2021/07/02 04:39:50;;;;;;;1999.90;999.90;;;13.30;99.90;;;;;;5053834;28;20215;-47
2021/07/02 04:42:17;;;;;;;1999.90;999.90;;;13.30;99.90;;;;;;5053463;28;20161;-50
2021/07/02 04:44:44;;;;;;;1999.90;999.90;;;13.40;99.90;;;;;;5053506;28;20169;-47
2021/07/02 04:47:11;;;;;;;1999.90;999.90;;;13.40;99.90;;;;;;5053400;28;20173;-47
2021/07/02 04:49:37;;;;;;;1999.90;999.90;;;13.40;99.90;;;;;;5053146;28;20168;-48
2021/07/02 04:52:05;;;;;;;1999.90;999.90;;;13.40;99.90;;;;;;5053755;28;20173;-47
2021/07/02 04:54:31;;;;;;;1999.90;999.90;;;13.40;99.90;;;;;;5052999;28;20699;-50
2021/07/02 04:57:00;;;;;;;1999.90;999.90;;;13.40;99.90;;;;;;5053281;28;20165;-47
2021/07/02 04:59:29;;;;;;;1999.90;999.90;;;13.40;99.90;;;;;;5052765;28;20181;-47
2021/07/02 05:01:59;;;;;;;1999.90;999.90;;;13.40;99.90;;;;;;5052942;28;20263;-48
2021/07/02 05:04:26;;;;;;;1999.90;999.90;;;13.40;99.90;;;;;;5053320;28;20223;-48
2021/07/02 05:06:53;;;;;;;1999.90;999.90;;;13.40;99.90;;;;;;5053190;28;20180;-48
2021/07/02 05:09:21;;;;;;;1999.90;999.90;;;13.40;99.90;;;;;;5053089;28;20185;-47
2021/07/02 05:11:48;;;;;;;1999.90;999.90;;;13.40;99.90;;;;;;5052914;28;20549;-49
2021/07/02 05:14:15;;;;;;;1999.90;999.90;;;13.40;99.90;;;;;;5053315;28;20165;-53
2021/07/02 05:16:42;;;;;;;1999.90;999.90;;;13.40;99.90;;;;;;5052876;28;20211;-48
2021/07/02 05:19:09;;;;;;;1999.90;999.90;;;13.40;99.90;;;;;;5053084;28;20683;-48
2021/07/02 05:21:35;;;;;;;1999.90;999.90;;;13.40;99.90;;;;;;5053000;28;20161;-48
2021/07/02 05:24:02;;;;;;;1999.90;999.90;;;13.40;99.90;;;;;;5052692;28;20260;-48
2021/07/02 05:26:29;;;;;;;1999.90;999.90;;;13.30;99.90;;;;;;5053287;28;20197;-48
2021/07/02 05:28:56;;;;;;;1999.90;999.90;;;13.40;99.90;;;;;;5052585;28;20165;-48
2021/07/02 05:31:23;;;;;;;1999.90;999.90;;;13.50;99.90;;;;;;5052617;28;20244;-47
2021/07/02 05:33:49;;;;;;;1999.90;999.90;;;13.50;99.90;;;;;;5053147;28;20606;-48
2021/07/02 05:36:16;;;;;;;1999.90;999.90;;;13.50;99.90;;;;;;5052474;28;20211;-48
2021/07/02 05:38:43;;;;;;;1999.90;999.90;;;13.50;99.90;;;;;;5052423;28;20213;-48
2021/07/02 05:41:10;;;;;;;1999.90;999.90;;;13.50;99.90;;;;;;5052506;28;20279;-48
2021/07/02 05:43:37;;;;;;;1999.90;999.90;;;13.50;99.90;;;;;;5052313;28;20256;-49
2021/07/02 05:46:04;;;;;;;1999.90;999.90;;;13.50;99.90;;;;;;5052465;28;20165;-50
2021/07/02 05:48:32;;;;;;;1999.90;999.90;;;13.50;99.90;;;;;;5052559;28;20173;-48
2021/07/02 05:50:59;;;;;;;1999.90;999.90;;;13.50;99.90;;;;;;5052282;28;20199;-49
2021/07/02 05:53:26;;;;;;;1999.90;999.90;;;13.50;99.90;;;;;;5052495;28;20707;-48
2021/07/02 05:55:53;;;;;;;1999.90;999.90;;;13.50;99.90;;;;;;5052035;28;20173;-48
2021/07/02 05:58:19;;;;;;;1999.90;999.90;;;13.50;99.90;;;;;;5051817;28;20197;-48
2021/07/02 06:00:46;;;;;;;1999.90;999.90;;;13.50;99.90;;;;;;5052481;28;20196;-53
2021/07/02 06:03:13;;;;;;;1999.90;999.90;;;13.50;99.90;;;;;;5051905;28;20527;-48
2021/07/02 06:05:40;;;;;;;1999.90;999.90;;;13.50;99.90;;;;;;5051906;28;20216;-49
2021/07/02 06:08:06;;;;;;;1999.90;999.90;;;13.50;99.90;;;;;;5052229;28;20173;-46
2021/07/02 06:10:33;;;;;;;1999.90;999.90;;;13.60;99.90;;;;;;5051411;28;20243;-46
2021/07/02 06:13:00;;;;;;;1999.90;999.90;;;13.80;99.90;;;;;;5051760;28;20201;-54
2021/07/02 06:15:27;;;;;;;1999.90;999.90;;;14.00;99.90;;;;;;5052040;28;20654;-49
2021/07/02 06:17:54;;;;;;;1999.90;999.90;;;13.90;99.90;;;;;;5051549;28;20197;-55
2021/07/02 06:20:23;;;;;;;1999.90;999.90;;;14.20;99.90;;;;;;5051812;28;20226;-59
2021/07/02 06:22:50;;;;;;;1999.90;999.90;;;14.20;99.90;;;;;;5051531;28;20267;-59
2021/07/02 06:25:17;;;;;;;1999.90;999.90;;;14.10;99.90;;;;;;5051595;28;20208;-50
2021/07/02 06:27:44;;;;;;;1999.90;999.90;;;14.40;99.90;;;;;;5051949;28;20216;-58
2021/07/02 06:30:11;;;;;;;1999.90;999.90;;;14.80;99.90;;;;;;5051410;28;20221;-57
2021/07/02 06:32:38;;;;;;;1999.90;999.90;;;14.90;99.90;;;;;;5049876;28;20578;-62
2021/07/02 06:35:05;;;;;;;1999.90;999.90;;;15.20;99.90;;;;;;5051284;28;20642;-60
2021/07/02 06:37:32;;;;;;;1999.90;999.90;;;15.40;99.90;;;;;;5049902;28;20339;-58
2021/07/02 06:39:58;;;;;;;1999.90;999.90;;;15.50;99.90;;;;;;5050981;28;20210;-47
2021/07/02 06:42:25;;;;;;;1999.90;999.90;;;15.10;99.90;;;;;;5051584;28;20659;-50
2021/07/02 06:44:52;;;;;;;1999.90;999.90;;;14.90;99.90;;;;;;5050583;28;20212;-56
2021/07/02 06:47:19;;;;;;;1999.90;999.90;;;14.70;99.90;;;;;;5050525;28;20177;-50
2021/07/02 06:49:45;;;;;;;1999.90;999.90;;;14.70;99.90;;;;;;5050391;28;20193;-54
2021/07/02 06:52:12;;;;;;;1999.90;999.90;;;14.50;99.90;;;;;;5050612;28;20169;-49
2021/07/02 06:54:39;;;;;;;1999.90;999.90;;;14.40;99.90;;;;;;5050409;28;20532;-46
2021/07/02 06:57:09;;;;;;;1999.90;999.90;;;14.40;99.90;;;;;;5050049;28;20264;-44
2021/07/02 06:59:37;;;;;;;1999.90;999.90;;;14.30;99.90;;;;;;5050582;28;20212;-43
2021/07/02 07:02:09;;;;;;;1999.90;999.90;;;14.40;99.90;;;;;;5050067;28;20196;-44
2021/07/02 07:04:35;;;;;;;1999.90;999.90;;;14.50;99.90;;;;;;5050280;28;20567;-45
2021/07/02 07:07:07;;;;;;;1999.90;999.90;;;14.50;99.90;;;;;;5050289;28;20184;-50
2021/07/02 07:09:34;;;;;;;1999.90;999.90;;;14.50;99.90;;;;;;5050763;28;20173;-42
2021/07/02 07:12:01;;;;;;;1999.90;999.90;;;14.50;99.90;;;;;;5049727;28;20478;-47
2021/07/02 07:14:31;;;;;;;1999.90;999.90;;;14.40;99.90;;;;;;5051038;28;20276;-53
2021/07/02 07:16:58;;;;;;;1999.90;999.90;;;14.60;99.90;;;;;;5050689;28;20628;-42
2021/07/02 07:19:28;;;;;;;1999.90;999.90;;;14.50;99.90;;;;;;5050132;28;20220;-44
2021/07/02 07:21:56;;;;;;;1999.90;999.90;;;14.40;99.90;;;;;;5051679;28;20212;-51
2021/07/02 07:24:23;;;;;;;1999.90;999.90;;;14.50;99.90;;;;;;5054718;28;20684;-48
2021/07/02 07:26:50;;;;;;;1999.90;999.90;;;14.60;99.90;;;;;;5054497;28;20227;-46
2021/07/02 07:29:17;;;;;;;1999.90;999.90;;;14.60;99.90;;;;;;5054303;28;20180;-49
2021/07/02 07:31:44;;;;;;;1999.90;999.90;;;14.60;99.90;;;;;;5054296;28;20192;-63
2021/07/02 07:34:11;;;;;;;1999.90;999.90;;;14.70;99.90;;;;;;5054253;28;20174;-61
2021/07/02 07:36:38;;;;;;;1999.90;999.90;;;15.20;99.90;;;;;;5054693;28;20176;-59
2021/07/02 07:39:05;;;;;;;1999.90;999.90;;;15.80;99.90;;;;;;5052983;28;20219;-66
2021/07/02 07:41:32;;;;;;;1999.90;999.90;;;16.10;99.90;;;;;;5053613;28;20227;-49
2021/07/02 07:43:59;;;;;;;1999.90;999.90;;;16.00;99.90;;;;;;5054439;28;20621;-57
2021/07/02 07:46:28;;;;;;;1999.90;999.90;;;15.70;99.90;;;;;;5063386;28;20536;-47
2021/07/02 07:48:55;;;;;;;1999.90;999.90;;;15.50;99.90;;;;;;5070955;28;20227;-54
2021/07/02 07:53:55;;;;;;;1999.90;999.90;;;15.30;99.90;;;;;;5073731;28;20160;-61
2021/07/02 07:56:22;;;;;;;1999.90;999.90;;;15.40;99.90;;;;;;5073977;28;20736;-61
2021/07/02 07:58:48;;;;;;;1999.90;999.90;;;15.40;99.90;;;;;;5073809;28;20200;-59
2021/07/02 08:01:15;;;;;;;1999.90;999.90;;;15.50;99.90;;;;;;5073631;28;20172;-43
2021/07/02 08:03:42;;;;;;;1999.90;999.90;;;15.60;99.90;;;;;;5073803;28;20172;-63
2021/07/02 08:06:09;;;;;;;1999.90;999.90;;;15.70;99.90;;;;;;5073693;28;20181;-55
2021/07/02 08:08:35;;;;;;;1999.90;999.90;;;15.90;99.90;;;;;;5073510;28;20168;-61
2021/07/02 08:11:02;;;;;;;1999.90;999.90;;;16.20;99.90;;;;;;5073652;28;20576;-44
2021/07/02 08:13:30;;;;;;;1999.90;999.90;;;16.30;99.90;;;;;;5073774;28;20591;-44
2021/07/02 08:15:57;;;;;;;1999.90;999.90;;;16.30;99.90;;;;;;5073166;28;20183;-45
2021/07/02 08:18:24;;;;;;;1999.90;999.90;;;16.30;99.90;;;;;;5073526;28;20226;-44
2021/07/02 08:20:51;;;;;;;1999.90;999.90;;;16.30;99.90;;;;;;5073102;28;20172;-55
2021/07/02 08:23:18;;;;;;;1999.90;999.90;;;16.30;99.90;;;;;;5073221;28;20176;-54
2021/07/02 08:25:45;;;;;;;1999.90;999.90;;;16.30;99.90;;;;;;5073543;28;20255;-48
2021/07/02 08:30:57;;;;;;;1999.90;999.90;;;16.40;99.90;;;;;;5073088;28;20634;-46
2021/07/02 08:33:24;;;;;;;1999.90;999.90;;;16.60;99.90;;;;;;5071793;28;20169;-48
2021/07/02 08:35:51;;;;;;;1999.90;999.90;;;16.70;99.90;;;;;;5072871;28;20257;-50
2021/07/02 08:38:18;;;;;;;1999.90;999.90;;;16.80;99.90;;;;;;5073036;28;20204;-50
2021/07/02 08:40:45;;;;;;;1999.90;999.90;;;16.80;99.90;;;;;;5072752;28;20248;-52
2021/07/02 08:43:12;;;;;;;1999.90;999.90;;;16.90;99.90;;;;;;5072500;28;20641;-47
2021/07/02 08:45:40;;;;;;;1999.90;999.90;;;17.20;99.90;;;;;;5072979;28;20680;-58
2021/07/02 08:48:08;;;;;;;1999.90;999.90;;;17.30;99.90;;;;;;5072692;28;20641;-47
2021/07/02 08:50:37;;;;;;;1999.90;999.90;;;17.30;99.90;;;;;;5072934;28;20199;-47
2021/07/02 08:53:07;;;;;;;1999.90;999.90;;;17.40;99.90;;;;;;5073154;28;20618;-47
2021/07/02 08:55:34;;;;;;;1999.90;999.90;;;17.40;99.90;;;;;;5072756;28;20171;-49
2021/07/02 08:58:01;;;;;;;1999.90;999.90;;;17.20;99.90;;;;;;5072806;28;20210;-53
2021/07/02 09:00:28;;;;;;;1999.90;999.90;;;16.90;99.90;;;;;;5072844;28;20271;-49
2021/07/02 09:02:55;;;;;;;1999.90;999.90;;;16.80;99.90;;;;;;5072644;28;20165;-54
2021/07/02 09:05:37;;;;;;;1999.90;999.90;;;16.80;99.90;;;;;;5072837;28;20180;-45
2021/07/02 09:08:15;;;;;;;1999.90;999.90;;;16.90;99.90;;;;;;5072626;28;20165;-46
2021/07/02 09:10:43;;;;;;;1999.90;999.90;;;17.00;99.90;;;;;;5072501;28;20303;-56
2021/07/02 09:13:09;;;;;;;1999.90;999.90;;;16.90;99.90;;;;;;5073034;28;20168;-55
2021/07/02 09:15:48;;;;;;;1999.90;999.90;;;16.90;99.90;;;;;;5072512;28;20692;-49
2021/07/02 09:18:18;;;;;;;1999.90;999.90;;;17.20;99.90;;;;;;5056052;28;20196;-57
2021/07/02 09:20:46;;;;;;;1999.90;999.90;;;17.30;99.90;;;;;;5072386;28;20172;-50
2021/07/02 09:23:15;;;;;;;1999.90;999.90;;;17.50;99.90;;;;;;5072142;28;20173;-49
2021/07/02 09:25:46;;;;;;;1999.90;999.90;;;17.60;99.90;;;;;;5072540;28;20164;-47
2021/07/02 09:28:15;;;;;;;1999.90;999.90;;;17.60;99.90;;;;;;5072820;28;20260;-48
2021/07/02 09:30:44;;;;;;;1999.90;999.90;;;17.60;99.90;;;;;;5072133;28;20811;-45
2021/07/02 09:33:14;;;;;;;1999.90;999.90;;;17.70;99.90;;;;;;5072476;28;20173;-66
2021/07/02 09:35:59;;;;;;;1999.90;999.90;;;17.80;99.90;;;;;;5072108;28;20187;-52
2021/07/02 09:38:37;;;;;;;1999.90;999.90;;;17.80;99.90;;;;;;5072010;28;20231;-48
2021/07/02 09:41:05;;;;;;;1999.90;999.90;;;18.10;99.90;;;;;;5072415;28;20562;-48
2021/07/02 09:43:32;;;;;;;1999.90;999.90;;;18.20;99.90;;;;;;5072001;28;20200;-48
2021/07/02 09:46:03;;;;;;;1999.90;999.90;;;18.00;99.90;;;;;;5072406;28;20564;-50
2021/07/02 09:48:32;;;;;;;1999.90;999.90;;;18.00;99.90;;;;;;5055273;28;20176;-47
2021/07/02 09:51:09;;;;;;;1999.90;999.90;;;18.10;99.90;;;;;;5072383;28;20698;-49
2021/07/02 09:53:37;;;;;;;1999.90;999.90;;;17.90;99.90;;;;;;5072404;28;20266;-46
2021/07/02 09:56:06;;;;;;;1999.90;999.90;;;18.00;99.90;;;;;;5072400;28;20164;-48
2021/07/02 09:58:41;;;;;;;1999.90;999.90;;;17.90;99.90;;;;;;5071725;28;20299;-50
2021/07/02 10:01:10;;;;;;;1999.90;999.90;;;18.00;99.90;;;;;;5072375;28;20168;-46
2021/07/02 10:03:39;;;;;;;1999.90;999.90;;;18.00;99.90;;;;;;5071875;28;20199;-57
2021/07/02 10:06:18;;;;;;;1999.90;999.90;;;18.40;99.90;;;;;;5071991;28;20248;-58
2021/07/02 10:08:46;;;;;;;1999.90;999.90;;;18.60;99.90;;;;;;5071859;28;20162;-56
2021/07/02 10:11:13;;;;;;;1999.90;999.90;;;18.70;99.90;;;;;;5071556;28;20216;-55
2021/07/02 10:13:51;;;;;;;1999.90;999.90;;;18.80;99.90;;;;;;5071645;28;20548;-51
2021/07/02 10:16:19;;;;;;;1999.90;999.90;;;19.00;99.90;;;;;;5071251;28;20425;-50
2021/07/02 10:18:54;;;;;;;1999.90;999.90;;;19.10;99.90;;;;;;5071182;28;20235;-49
2021/07/02 10:21:24;;;;;;;1999.90;999.90;;;19.20;99.90;;;;;;5070310;28;20225;-47
2021/07/02 10:23:57;;;;;;;1999.90;999.90;;;19.30;99.90;;;;;;5071159;28;20163;-47
2021/07/02 10:26:26;;;;;;;1999.90;999.90;;;19.50;99.90;;;;;;5070863;28;20477;-49
2021/07/02 10:28:55;;;;;;;1999.90;999.90;;;19.40;99.90;;;;;;5071360;28;20310;-51
2021/07/02 10:31:22;;;;;;;1999.90;999.90;;;19.40;99.90;;;;;;5070870;28;20179;-52
2021/07/02 10:33:51;;;;;;;1999.90;999.90;;;19.60;99.90;;;;;;5071014;28;20677;-50
2021/07/02 10:36:19;;;;;;;1999.90;999.90;;;19.70;99.90;;;;;;5071289;28;20168;-55
2021/07/02 10:38:50;;;;;;;1999.90;999.90;;;19.80;99.90;;;;;;5070587;28;20215;-48
2021/07/02 10:41:21;;;;;;;1999.90;999.90;;;19.90;99.90;;;;;;5071261;28;20145;-55
2021/07/02 10:44:12;;;;;;;1999.90;999.90;;;19.70;99.90;;;;;;5070971;28;20163;-59
2021/07/02 10:46:48;;;;;;;1999.90;999.90;;;19.60;99.90;;;;;;5070730;28;20187;-59
2021/07/02 10:49:16;;;;;;;1999.90;999.90;;;19.70;99.90;;;;;;5071213;28;20183;-56
2021/07/02 10:51:42;;;;;;;1999.90;999.90;;;19.70;99.90;;;;;;5070642;28;20218;-50
2021/07/02 10:54:19;;;;;;;1999.90;999.90;;;19.80;99.90;;;;;;5071101;28;20160;-59
2021/07/02 10:56:58;;;;;;;1999.90;999.90;;;19.70;99.90;;;;;;5070021;28;20156;-56
2021/07/02 10:59:37;;;;;;;1999.90;999.90;;;19.60;99.90;;;;;;5070751;28;20311;-49
2021/07/02 11:02:10;;;;;;;1999.90;999.90;;;19.60;99.90;;;;;;5070919;28;20241;-59
2021/07/02 11:04:50;;;;;;;1999.90;999.90;;;19.40;99.90;;;;;;5070875;28;20153;-56
2021/07/02 11:07:26;;;;;;;1999.90;999.90;;;19.40;99.90;;;;;;5070244;28;20180;-44
2021/07/02 11:10:06;;;;;;;1999.90;999.90;;;19.30;99.90;;;;;;5070419;28;20231;-46
2021/07/02 11:12:45;;;;;;;1999.90;999.90;;;18.90;99.90;;;;;;5070603;28;20161;-46
2021/07/02 11:15:19;;;;;;;1999.90;999.90;;;18.80;99.90;;;;;;5071154;28;20223;-45
2021/07/02 11:17:52;;;;;;;1999.90;999.90;;;18.90;99.90;;;;;;5070516;28;20555;-46
2021/07/02 11:20:21;;;;;;;1999.90;999.90;;;18.90;99.90;;;;;;5070821;28;20180;-45
2021/07/02 11:23:12;;;;;;;1999.90;999.90;;;18.90;99.90;;;;;;5070747;28;20715;-44
2021/07/02 11:25:48;;;;;;;1999.90;999.90;;;18.80;99.90;;;;;;5070380;28;20169;-44
2021/07/02 11:28:21;;;;;;;1999.90;999.90;;;18.80;99.90;;;;;;5070743;28;20156;-45
2021/07/02 11:30:48;;;;;;;1999.90;999.90;;;18.90;99.90;;;;;;5070567;28;20165;-44
2021/07/02 11:33:24;;;;;;;1999.90;999.90;;;18.90;99.90;;;;;;5070456;28;20173;-45
2021/07/02 11:36:00;;;;;;;1999.90;999.90;;;19.00;99.90;;;;;;5070937;28;20164;-47
2021/07/02 11:38:30;;;;;;;1999.90;999.90;;;19.00;99.90;;;;;;5070584;28;20592;-45
2021/07/02 11:40:59;;;;;;;1999.90;999.90;;;18.90;99.90;;;;;;5070344;28;20537;-45
2021/07/02 11:43:34;;;;;;;1999.90;999.90;;;18.80;99.90;;;;;;5070475;28;20177;-45
2021/07/02 11:46:05;;;;;;;1999.90;999.90;;;18.70;99.90;;;;;;5070711;28;20172;-47
2021/07/02 11:48:37;;;;;;;1999.90;999.90;;;18.70;99.90;;;;;;5070350;28;20164;-44
2021/07/02 11:51:05;;;;;;;1999.90;999.90;;;18.70;99.90;;;;;;5070840;28;20164;-44
2021/07/02 11:53:39;;;;;;;1999.90;999.90;;;18.70;99.90;;;;;;5070321;28;20172;-45
2021/07/02 11:56:25;;;;;;;1999.90;999.90;;;18.80;99.90;;;;;;5070575;28;20160;-48
2021/07/02 11:59:00;;;;;;;1999.90;999.90;;;18.90;99.90;;;;;;5070423;28;20196;-49
2021/07/02 12:01:38;;;;;;;1999.90;999.90;;;18.90;99.90;;;;;;5070436;28;20243;-50
2021/07/02 12:04:12;;;;;;;1999.90;999.90;;;18.90;99.90;;;;;;5070319;28;20164;-45
2021/07/02 12:06:44;;;;;;;1999.90;999.90;;;18.90;99.90;;;;;;5070012;28;20148;-50
2021/07/02 12:09:24;;;;;;;1999.90;999.90;;;18.90;99.90;;;;;;5073211;28;20157;-45
2021/07/02 12:11:56;;;;;;;1999.90;999.90;;;18.90;99.90;;;;;;5074088;28;20231;-46